createdAt,value
2018-09-30T00:00:37.287Z,0.00
2018-09-30T00:01:37.338Z,0.00
2018-09-30T00:03:30.322Z,0.00
2018-09-30T00:04:30.379Z,0.00
2018-09-30T00:06:23.369Z,0.00
2018-09-30T00:07:23.418Z,0.00
2018-09-30T00:09:16.393Z,0.00
2018-09-30T00:10:16.452Z,0.00
2018-09-30T00:12:09.450Z,0.00
2018-09-30T00:13:09.500Z,0.00
2018-09-30T00:15:02.468Z,0.00
2018-09-30T00:16:02.526Z,0.00
2018-09-30T00:17:55.508Z,0.00
2018-09-30T00:18:55.560Z,0.00
2018-09-30T00:20:48.559Z,0.00
2018-09-30T00:21:48.602Z,0.00
2018-09-30T00:23:41.583Z,0.00
2018-09-30T00:24:41.638Z,0.00
2018-09-30T00:26:34.629Z,0.00
2018-09-30T00:27:34.678Z,0.00
2018-09-30T00:29:27.660Z,0.00
2018-09-30T00:30:27.715Z,0.00
2018-09-30T00:32:20.705Z,0.00
2018-09-30T00:33:20.754Z,0.00
2018-09-30T00:35:13.735Z,0.00
2018-09-30T00:36:13.814Z,0.00
2018-09-30T00:38:06.777Z,0.00
2018-09-30T00:39:06.828Z,0.00
2018-09-30T00:40:59.820Z,0.00
2018-09-30T00:41:59.870Z,0.00
2018-09-30T00:43:52.844Z,0.00
2018-09-30T00:44:52.903Z,0.00
2018-09-30T00:46:45.891Z,0.00
2018-09-30T00:47:45.938Z,0.00
2018-09-30T00:49:38.922Z,0.00
2018-09-30T00:50:38.974Z,0.00
2018-09-30T00:52:31.964Z,0.00
2018-09-30T00:53:32.012Z,0.00
2018-09-30T00:55:24.993Z,0.00
2018-09-30T00:56:25.049Z,0.00
2018-09-30T00:58:18.039Z,0.00
2018-09-30T00:59:18.088Z,0.00
2018-09-30T01:01:11.066Z,0.00
2018-09-30T01:02:11.123Z,0.00
2018-09-30T01:04:04.620Z,0.00
2018-09-30T01:05:04.670Z,0.00
2018-09-30T01:06:57.665Z,0.00
2018-09-30T01:07:57.706Z,0.00
2018-09-30T01:09:50.687Z,0.00
2018-09-30T01:10:50.744Z,0.00
2018-09-30T01:12:43.734Z,0.00
2018-09-30T01:13:43.782Z,0.00
2018-09-30T01:15:36.762Z,0.00
2018-09-30T01:16:36.817Z,0.00
2018-09-30T01:18:29.803Z,0.00
2018-09-30T01:19:29.850Z,0.00
2018-09-30T01:21:22.828Z,0.00
2018-09-30T01:22:22.885Z,0.00
2018-09-30T01:24:15.887Z,0.00
2018-09-30T01:25:15.933Z,0.00
2018-09-30T01:27:08.927Z,0.00
2018-09-30T01:28:08.972Z,0.00
2018-09-30T01:30:01.949Z,0.00
2018-09-30T01:31:02.006Z,0.00
2018-09-30T01:32:54.990Z,0.00
2018-09-30T01:33:55.049Z,0.00
2018-09-30T01:35:48.027Z,0.00
2018-09-30T01:36:48.085Z,0.00
2018-09-30T01:38:41.068Z,0.00
2018-09-30T01:39:41.118Z,0.00
2018-09-30T01:41:34.099Z,0.00
2018-09-30T01:42:34.155Z,0.00
2018-09-30T01:44:27.145Z,0.00
2018-09-30T01:45:27.195Z,0.00
2018-09-30T01:47:20.192Z,0.00
2018-09-30T01:48:20.238Z,0.00
2018-09-30T01:50:13.228Z,0.00
2018-09-30T01:51:13.273Z,0.00
2018-09-30T01:53:06.284Z,0.00
2018-09-30T01:54:06.321Z,0.00
2018-09-30T01:55:59.299Z,0.00
2018-09-30T01:56:59.357Z,0.00
2018-09-30T01:58:52.340Z,0.00
2018-09-30T01:59:52.391Z,0.00
2018-09-30T02:01:45.371Z,0.00
2018-09-30T02:02:45.430Z,0.00
2018-09-30T02:04:38.929Z,0.00
2018-09-30T02:05:38.976Z,0.00
2018-09-30T02:07:31.955Z,0.00
2018-09-30T02:08:32.013Z,0.00
2018-09-30T02:10:25.000Z,0.00
2018-09-30T02:11:25.048Z,0.00
2018-09-30T02:13:18.023Z,0.00
2018-09-30T02:14:18.081Z,0.00
2018-09-30T02:16:11.070Z,0.00
2018-09-30T02:17:11.118Z,0.00
2018-09-30T02:19:04.107Z,0.00
2018-09-30T02:20:04.152Z,0.00
2018-09-30T02:21:57.131Z,0.00
2018-09-30T02:22:57.188Z,0.00
2018-09-30T02:24:50.172Z,0.00
2018-09-30T02:25:50.222Z,0.00
2018-09-30T02:27:43.229Z,0.00
2018-09-30T02:28:43.267Z,0.00
2018-09-30T02:30:36.256Z,0.00
2018-09-30T02:31:36.304Z,0.00
2018-09-30T02:33:29.288Z,0.00
2018-09-30T02:34:29.344Z,0.00
2018-09-30T02:36:22.325Z,0.00
2018-09-30T02:37:22.377Z,0.00
2018-09-30T02:39:15.367Z,0.00
2018-09-30T02:40:15.422Z,0.00
2018-09-30T02:42:08.407Z,0.00
2018-09-30T02:43:08.458Z,0.00
2018-09-30T02:45:01.465Z,0.00
2018-09-30T02:46:01.503Z,0.00
2018-09-30T02:47:54.486Z,0.00
2018-09-30T02:48:54.541Z,0.00
2018-09-30T02:50:47.533Z,0.00
2018-09-30T02:51:47.583Z,0.00
2018-09-30T02:53:40.557Z,0.00
2018-09-30T02:54:40.614Z,0.00
2018-09-30T02:56:33.604Z,0.00
2018-09-30T02:57:33.652Z,0.00
2018-09-30T02:59:26.631Z,0.00
2018-09-30T03:00:26.687Z,0.00
2018-09-30T03:02:19.677Z,0.00
2018-09-30T03:03:19.725Z,0.00
2018-09-30T03:05:12.731Z,0.00
2018-09-30T03:06:12.765Z,0.00
2018-09-30T03:08:05.740Z,0.00
2018-09-30T03:09:05.799Z,0.00
2018-09-30T03:10:58.789Z,0.00
2018-09-30T03:11:58.838Z,0.00
2018-09-30T03:13:51.813Z,0.00
2018-09-30T03:14:51.872Z,0.00
2018-09-30T03:16:44.855Z,0.00
2018-09-30T03:17:44.903Z,0.00
2018-09-30T03:19:37.888Z,0.00
2018-09-30T03:20:37.943Z,0.00
2018-09-30T03:22:30.946Z,0.00
2018-09-30T03:23:30.999Z,0.00
2018-09-30T03:25:23.974Z,0.00
2018-09-30T03:26:24.030Z,0.00
2018-09-30T03:28:17.021Z,0.00
2018-09-30T03:29:17.074Z,0.00
2018-09-30T03:31:10.073Z,0.00
2018-09-30T03:32:10.111Z,0.00
2018-09-30T03:34:03.090Z,0.00
2018-09-30T03:35:03.147Z,0.00
2018-09-30T03:36:56.137Z,0.00
2018-09-30T03:37:56.186Z,0.00
2018-09-30T03:39:49.184Z,0.00
2018-09-30T03:40:49.241Z,0.00
2018-09-30T03:42:42.223Z,0.00
2018-09-30T03:43:42.271Z,0.00
2018-09-30T03:45:35.247Z,0.00
2018-09-30T03:46:35.303Z,0.00
2018-09-30T03:48:28.294Z,0.00
2018-09-30T03:49:28.343Z,0.00
2018-09-30T03:51:21.322Z,0.00
2018-09-30T03:52:21.382Z,0.00
2018-09-30T03:54:14.380Z,0.00
2018-09-30T03:55:14.432Z,0.00
2018-09-30T03:57:07.421Z,0.00
2018-09-30T03:58:07.468Z,0.00
2018-09-30T04:00:00.449Z,0.00
2018-09-30T04:01:00.508Z,0.00
2018-09-30T04:02:53.490Z,0.00
2018-09-30T04:03:53.543Z,0.00
2018-09-30T04:05:46.518Z,0.00
2018-09-30T04:06:46.576Z,0.00
2018-09-30T04:08:39.565Z,0.00
2018-09-30T04:09:39.688Z,0.00
2018-09-30T04:11:32.590Z,0.00
2018-09-30T04:12:32.646Z,0.00
2018-09-30T04:14:25.636Z,0.00
2018-09-30T04:15:25.683Z,0.00
2018-09-30T04:17:18.690Z,0.00
2018-09-30T04:18:18.725Z,0.00
2018-09-30T04:20:11.700Z,0.00
2018-09-30T04:21:11.757Z,0.00
2018-09-30T04:23:04.746Z,0.00
2018-09-30T04:24:04.795Z,0.00
2018-09-30T04:25:57.769Z,0.00
2018-09-30T04:26:57.828Z,0.00
2018-09-30T04:28:50.815Z,0.00
2018-09-30T04:29:50.860Z,0.00
2018-09-30T04:31:43.844Z,0.00
2018-09-30T04:32:43.905Z,0.00
2018-09-30T04:34:36.882Z,0.00
2018-09-30T04:35:36.932Z,0.00
2018-09-30T04:37:29.919Z,0.00
2018-09-30T04:38:29.972Z,0.00
2018-09-30T04:40:22.961Z,0.00
2018-09-30T04:41:23.008Z,0.00
2018-09-30T04:43:15.987Z,0.00
2018-09-30T04:44:16.041Z,0.00
2018-09-30T04:46:09.015Z,0.00
2018-09-30T04:47:09.071Z,0.00
2018-09-30T04:49:02.056Z,0.00
2018-09-30T04:50:02.164Z,0.00
2018-09-30T04:51:55.082Z,0.00
2018-09-30T04:52:55.137Z,0.00
2018-09-30T04:54:48.119Z,0.00
2018-09-30T04:55:48.170Z,0.00
2018-09-30T04:57:41.148Z,0.00
2018-09-30T04:58:41.204Z,0.00
2018-09-30T05:00:34.192Z,0.00
2018-09-30T05:01:34.241Z,0.00
2018-09-30T05:03:27.219Z,0.00
2018-09-30T05:04:27.273Z,0.00
2018-09-30T05:06:20.256Z,0.00
2018-09-30T05:07:20.321Z,0.00
2018-09-30T05:09:13.287Z,0.00
2018-09-30T05:10:13.337Z,0.00
2018-09-30T05:12:06.312Z,0.00
2018-09-30T05:13:06.372Z,0.00
2018-09-30T05:14:59.363Z,0.00
2018-09-30T05:15:59.448Z,0.00
2018-09-30T05:17:52.394Z,0.00
2018-09-30T05:18:52.443Z,0.00
2018-09-30T05:20:45.424Z,5.63
2018-09-30T05:21:45.474Z,5.63
2018-09-30T05:23:38.452Z,5.63
2018-09-30T05:24:38.506Z,5.63
2018-09-30T05:26:31.498Z,11.25
2018-09-30T05:27:31.546Z,11.25
2018-09-30T05:29:24.520Z,11.25
2018-09-30T05:30:24.575Z,16.88
2018-09-30T05:32:17.558Z,16.88
2018-09-30T05:33:17.606Z,16.88
2018-09-30T05:35:10.600Z,22.50
2018-09-30T05:36:10.643Z,22.50
2018-09-30T05:38:03.622Z,28.13
2018-09-30T05:39:03.676Z,28.13
2018-09-30T05:40:56.661Z,33.75
2018-09-30T05:41:56.706Z,33.75
2018-09-30T05:43:49.682Z,39.38
2018-09-30T05:44:49.737Z,39.38
2018-09-30T05:46:42.728Z,45.00
2018-09-30T05:47:42.778Z,45.00
2018-09-30T05:49:35.754Z,50.63
2018-09-30T05:50:35.809Z,50.63
2018-09-30T05:52:28.792Z,56.25
2018-09-30T05:53:28.845Z,56.25
2018-09-30T05:55:21.826Z,61.88
2018-09-30T05:56:21.881Z,67.50
2018-09-30T05:58:14.852Z,67.50
2018-09-30T05:59:14.907Z,73.13
2018-09-30T06:01:07.890Z,73.13
2018-09-30T06:02:07.963Z,78.75
2018-09-30T06:04:00.968Z,78.75
2018-09-30T06:05:00.973Z,84.38
2018-09-30T06:06:53.956Z,84.38
2018-09-30T06:07:54.004Z,90.00
2018-09-30T06:09:46.982Z,95.63
2018-09-30T06:10:47.037Z,95.63
2018-09-30T06:12:40.026Z,101.25
2018-09-30T06:13:40.085Z,106.88
2018-09-30T06:15:33.048Z,106.88
2018-09-30T06:16:33.103Z,112.50
2018-09-30T06:18:26.089Z,112.50
2018-09-30T06:19:26.140Z,118.13
2018-09-30T06:21:19.120Z,118.13
2018-09-30T06:22:19.171Z,123.75
2018-09-30T06:24:12.227Z,135.00
2018-09-30T06:25:12.203Z,140.63
2018-09-30T06:27:05.193Z,151.88
2018-09-30T06:28:05.239Z,151.88
2018-09-30T06:29:58.218Z,163.13
2018-09-30T06:30:58.270Z,163.13
2018-09-30T06:32:51.253Z,174.38
2018-09-30T06:33:51.306Z,180.00
2018-09-30T06:35:44.293Z,185.63
2018-09-30T06:36:44.346Z,191.25
2018-09-30T06:38:37.339Z,208.13
2018-09-30T06:39:37.382Z,219.38
2018-09-30T06:41:30.361Z,241.88
2018-09-30T06:42:30.420Z,253.13
2018-09-30T06:44:23.408Z,286.88
2018-09-30T06:45:23.567Z,298.13
2018-09-30T06:47:16.446Z,326.25
2018-09-30T06:48:16.488Z,348.75
2018-09-30T06:50:09.469Z,376.88
2018-09-30T06:51:09.526Z,399.38
2018-09-30T06:53:02.517Z,506.25
2018-09-30T06:54:02.564Z,551.25
2018-09-30T06:55:55.543Z,579.38
2018-09-30T06:56:55.596Z,585.00
2018-09-30T06:58:48.586Z,590.63
2018-09-30T06:59:48.637Z,596.25
2018-09-30T07:01:41.615Z,607.50
2018-09-30T07:02:41.669Z,618.75
2018-09-30T07:04:35.167Z,630.00
2018-09-30T07:05:35.218Z,635.63
2018-09-30T07:07:28.215Z,652.50
2018-09-30T07:08:28.272Z,658.13
2018-09-30T07:10:21.254Z,663.75
2018-09-30T07:11:21.326Z,675.00
2018-09-30T07:13:14.304Z,686.25
2018-09-30T07:14:14.355Z,697.50
2018-09-30T07:16:07.343Z,708.75
2018-09-30T07:17:07.401Z,714.38
2018-09-30T07:19:00.403Z,725.63
2018-09-30T07:20:00.444Z,731.25
2018-09-30T07:21:53.439Z,748.13
2018-09-30T07:22:53.503Z,753.75
2018-09-30T07:24:46.496Z,770.63
2018-09-30T07:25:46.554Z,781.88
2018-09-30T07:27:39.541Z,787.50
2018-09-30T07:28:39.600Z,793.13
2018-09-30T07:30:32.597Z,810.00
2018-09-30T07:31:32.654Z,815.63
2018-09-30T07:33:25.647Z,832.50
2018-09-30T07:34:25.778Z,843.75
2018-09-30T07:36:18.694Z,866.25
2018-09-30T07:37:18.752Z,900.00
2018-09-30T07:39:11.750Z,1108.13
2018-09-30T07:40:11.806Z,1293.75
2018-09-30T07:42:04.794Z,1608.75
2018-09-30T07:43:04.857Z,1777.50
2018-09-30T07:44:57.855Z,1912.50
2018-09-30T07:45:57.911Z,1940.63
2018-09-30T07:47:50.904Z,1968.75
2018-09-30T07:48:50.967Z,1968.75
2018-09-30T07:50:43.967Z,2053.13
2018-09-30T07:51:44.026Z,2092.50
2018-09-30T07:53:37.019Z,1923.75
2018-09-30T07:54:37.081Z,1963.13
2018-09-30T07:56:30.081Z,2013.75
2018-09-30T07:57:30.141Z,2013.75
2018-09-30T07:59:23.141Z,2058.75
2018-09-30T08:00:23.199Z,1951.88
2018-09-30T08:02:16.192Z,2053.13
2018-09-30T08:03:16.256Z,2098.13
2018-09-30T08:05:09.761Z,2171.25
2018-09-30T08:06:09.819Z,2109.38
2018-09-30T08:08:02.815Z,2143.13
2018-09-30T08:09:02.879Z,2126.25
2018-09-30T08:10:55.898Z,2154.38
2018-09-30T08:11:55.956Z,2188.13
2018-09-30T08:13:48.949Z,2205.00
2018-09-30T08:14:49.018Z,2216.25
2018-09-30T08:16:42.020Z,2205.00
2018-09-30T08:17:42.072Z,2165.63
2018-09-30T08:19:35.066Z,2250.00
2018-09-30T08:20:35.136Z,2250.00
2018-09-30T08:22:28.132Z,2272.50
2018-09-30T08:23:28.191Z,2306.25
2018-09-30T08:25:21.195Z,2250.00
2018-09-30T08:26:21.252Z,2199.38
2018-09-30T08:28:14.250Z,2205.00
2018-09-30T08:29:14.320Z,2227.50
2018-09-30T08:31:07.322Z,2250.00
2018-09-30T08:32:07.376Z,2289.38
2018-09-30T08:34:00.373Z,2311.88
2018-09-30T08:35:00.437Z,2311.88
2018-09-30T08:36:53.443Z,2193.75
2018-09-30T08:37:53.502Z,2283.75
2018-09-30T08:39:46.622Z,2238.75
2018-09-30T08:40:46.563Z,2255.63
2018-09-30T08:42:39.564Z,2070.00
2018-09-30T08:43:39.656Z,1299.38
2018-09-30T08:45:32.627Z,309.38
2018-09-30T08:46:32.727Z,270.00
2018-09-30T08:48:25.684Z,253.13
2018-09-30T08:49:25.790Z,253.13
2018-09-30T08:51:18.748Z,247.50
2018-09-30T08:52:18.808Z,247.50
2018-09-30T08:54:11.799Z,241.88
2018-09-30T08:55:11.894Z,241.88
2018-09-30T08:57:06.498Z,241.88
2018-09-30T08:58:05.005Z,241.88
2018-09-30T08:59:57.983Z,241.88
2018-09-30T09:00:58.050Z,241.88
2018-09-30T09:02:51.530Z,241.88
2018-09-30T09:03:51.585Z,241.88
2018-09-30T09:05:44.577Z,236.25
2018-09-30T09:06:44.642Z,236.25
2018-09-30T09:08:39.788Z,236.25
2018-09-30T09:09:37.790Z,236.25
2018-09-30T09:11:30.696Z,236.25
2018-09-30T09:12:30.739Z,236.25
2018-09-30T09:14:24.238Z,236.25
2018-09-30T09:15:24.345Z,241.88
2018-09-30T09:17:17.292Z,236.25
2018-09-30T09:18:17.348Z,230.63
2018-09-30T09:20:10.335Z,230.63
2018-09-30T09:21:10.391Z,230.63
2018-09-30T09:23:03.390Z,230.63
2018-09-30T09:24:03.442Z,230.63
2018-09-30T09:25:56.436Z,230.63
2018-09-30T09:26:56.495Z,230.63
2018-09-30T09:28:49.490Z,225.00
2018-09-30T09:29:49.542Z,225.00
2018-09-30T09:31:42.551Z,225.00
2018-09-30T09:32:42.590Z,225.00
2018-09-30T09:34:35.584Z,225.00
2018-09-30T09:35:35.637Z,225.00
2018-09-30T09:37:28.633Z,225.00
2018-09-30T09:38:28.793Z,225.00
2018-09-30T09:40:21.673Z,225.00
2018-09-30T09:41:21.734Z,225.00
2018-09-30T09:43:14.730Z,225.00
2018-09-30T09:44:14.782Z,225.00
2018-09-30T09:46:07.775Z,225.00
2018-09-30T09:47:07.924Z,219.38
2018-09-30T09:49:00.826Z,219.38
2018-09-30T09:50:00.877Z,219.38
2018-09-30T09:51:53.924Z,219.38
2018-09-30T09:52:53.990Z,219.38
2018-09-30T09:54:46.922Z,219.38
2018-09-30T09:55:46.969Z,219.38
2018-09-30T09:57:39.955Z,219.38
2018-09-30T09:58:40.015Z,219.38
2018-09-30T10:00:33.010Z,219.38
2018-09-30T10:01:33.059Z,219.38
2018-09-30T10:03:26.056Z,219.38
2018-09-30T10:04:26.116Z,219.38
2018-09-30T10:06:19.606Z,219.38
2018-09-30T10:07:19.666Z,219.38
2018-09-30T10:09:12.657Z,219.38
2018-09-30T10:10:12.723Z,219.38
2018-09-30T10:12:05.700Z,219.38
2018-09-30T10:13:05.804Z,219.38
2018-09-30T10:14:58.753Z,219.38
2018-09-30T10:15:58.806Z,219.38
2018-09-30T10:17:51.791Z,219.38
2018-09-30T10:18:51.852Z,219.38
2018-09-30T10:20:44.847Z,219.38
2018-09-30T10:21:44.897Z,219.38
2018-09-30T10:23:37.890Z,219.38
2018-09-30T10:24:37.942Z,219.38
2018-09-30T10:26:30.941Z,219.38
2018-09-30T10:27:30.983Z,219.38
2018-09-30T10:29:23.984Z,219.38
2018-09-30T10:30:24.034Z,219.38
2018-09-30T10:32:17.025Z,219.38
2018-09-30T10:33:17.081Z,219.38
2018-09-30T10:35:10.076Z,219.38
2018-09-30T10:36:10.133Z,219.38
2018-09-30T10:38:03.118Z,219.38
2018-09-30T10:39:03.291Z,219.38
2018-09-30T10:40:56.173Z,219.38
2018-09-30T10:41:56.225Z,219.38
2018-09-30T10:43:49.211Z,219.38
2018-09-30T10:44:49.271Z,219.38
2018-09-30T10:46:42.291Z,219.38
2018-09-30T10:47:42.351Z,219.38
2018-09-30T10:49:35.329Z,219.38
2018-09-30T10:50:35.392Z,219.38
2018-09-30T10:52:28.387Z,219.38
2018-09-30T10:53:28.437Z,219.38
2018-09-30T10:55:21.444Z,225.00
2018-09-30T10:56:21.484Z,219.38
2018-09-30T10:58:14.471Z,219.38
2018-09-30T10:59:14.530Z,219.38
2018-09-30T11:01:07.524Z,219.38
2018-09-30T11:02:07.575Z,219.38
2018-09-30T11:04:00.563Z,225.00
2018-09-30T11:05:00.623Z,225.00
2018-09-30T11:06:53.623Z,225.00
2018-09-30T11:07:53.677Z,225.00
2018-09-30T11:09:47.245Z,225.00
2018-09-30T11:10:47.236Z,225.00
2018-09-30T11:12:40.226Z,225.00
2018-09-30T11:13:40.278Z,230.63
2018-09-30T11:15:33.276Z,225.00
2018-09-30T11:16:33.326Z,225.00
2018-09-30T11:18:26.322Z,230.63
2018-09-30T11:19:26.373Z,230.63
2018-09-30T11:21:19.371Z,230.63
2018-09-30T11:22:19.430Z,236.25
2018-09-30T11:24:12.410Z,241.88
2018-09-30T11:25:12.629Z,247.50
2018-09-30T11:27:05.466Z,258.75
2018-09-30T11:28:05.518Z,258.75
2018-09-30T11:29:58.515Z,258.75
2018-09-30T11:30:58.577Z,258.75
2018-09-30T11:32:51.605Z,264.38
2018-09-30T11:33:51.626Z,264.38
2018-09-30T11:35:44.616Z,275.63
2018-09-30T11:36:44.675Z,275.63
2018-09-30T11:38:37.670Z,281.25
2018-09-30T11:39:37.729Z,281.25
2018-09-30T11:41:30.713Z,281.25
2018-09-30T11:42:30.772Z,286.88
2018-09-30T11:44:23.775Z,286.88
2018-09-30T11:45:23.831Z,281.25
2018-09-30T11:47:16.841Z,264.38
2018-09-30T11:48:16.884Z,253.13
2018-09-30T11:50:09.872Z,247.50
2018-09-30T11:51:09.932Z,241.88
2018-09-30T11:53:02.932Z,241.88
2018-09-30T11:54:02.986Z,241.88
2018-09-30T11:55:55.974Z,236.25
2018-09-30T11:56:56.037Z,236.25
2018-09-30T11:58:49.029Z,230.63
2018-09-30T11:59:49.082Z,225.00
2018-09-30T12:01:42.071Z,225.00
2018-09-30T12:02:42.135Z,225.00
2018-09-30T12:04:35.122Z,219.38
2018-09-30T12:05:35.184Z,213.75
2018-09-30T12:07:28.361Z,213.75
2018-09-30T12:08:28.424Z,213.75
2018-09-30T12:10:21.925Z,213.75
2018-09-30T12:11:21.975Z,213.75
2018-09-30T12:13:14.974Z,213.75
2018-09-30T12:14:15.022Z,219.38
2018-09-30T12:16:08.019Z,219.38
2018-09-30T12:17:08.079Z,219.38
2018-09-30T12:19:01.096Z,219.38
2018-09-30T12:20:01.149Z,219.38
2018-09-30T12:21:54.139Z,225.00
2018-09-30T12:22:54.206Z,225.00
2018-09-30T12:24:47.195Z,230.63
2018-09-30T12:25:47.268Z,236.25
2018-09-30T12:27:40.243Z,253.13
2018-09-30T12:28:40.299Z,253.13
2018-09-30T12:30:33.300Z,270.00
2018-09-30T12:31:33.351Z,281.25
2018-09-30T12:33:26.360Z,298.13
2018-09-30T12:34:26.398Z,315.00
2018-09-30T12:36:19.394Z,337.50
2018-09-30T12:37:19.445Z,348.75
2018-09-30T12:39:12.455Z,360.00
2018-09-30T12:40:12.493Z,371.25
2018-09-30T12:42:05.480Z,388.13
2018-09-30T12:43:05.541Z,393.75
2018-09-30T12:44:58.537Z,399.38
2018-09-30T12:45:58.590Z,399.38
2018-09-30T12:47:51.577Z,399.38
2018-09-30T12:48:51.640Z,399.38
2018-09-30T12:50:44.661Z,399.38
2018-09-30T12:51:44.693Z,405.00
2018-09-30T12:53:37.674Z,416.25
2018-09-30T12:54:37.737Z,416.25
2018-09-30T12:56:30.737Z,421.88
2018-09-30T12:57:30.796Z,427.50
2018-09-30T12:59:23.790Z,433.13
2018-09-30T13:00:23.844Z,433.13
2018-09-30T13:02:16.833Z,433.13
2018-09-30T13:03:16.895Z,421.88
2018-09-30T13:05:09.897Z,416.25
2018-09-30T13:06:09.949Z,405.00
2018-09-30T13:08:02.946Z,393.75
2018-09-30T13:09:03.009Z,388.13
2018-09-30T13:10:56.016Z,393.75
2018-09-30T13:11:56.096Z,388.13
2018-09-30T13:13:49.062Z,382.50
2018-09-30T13:14:49.121Z,376.88
2018-09-30T13:16:42.121Z,371.25
2018-09-30T13:17:42.181Z,360.00
2018-09-30T13:19:35.176Z,337.50
2018-09-30T13:20:35.310Z,331.88
2018-09-30T13:22:28.237Z,309.38
2018-09-30T13:23:28.295Z,315.00
2018-09-30T13:25:21.292Z,315.00
2018-09-30T13:26:21.351Z,315.00
2018-09-30T13:28:14.351Z,315.00
2018-09-30T13:29:14.405Z,315.00
2018-09-30T13:31:07.405Z,320.63
2018-09-30T13:32:07.457Z,320.63
2018-09-30T13:34:00.449Z,320.63
2018-09-30T13:35:00.512Z,320.63
2018-09-30T13:36:53.535Z,298.13
2018-09-30T13:37:53.593Z,275.63
2018-09-30T13:39:46.579Z,258.75
2018-09-30T13:40:46.753Z,258.75
2018-09-30T13:42:40.147Z,264.38
2018-09-30T13:43:40.201Z,270.00
2018-09-30T13:45:33.198Z,399.38
2018-09-30T13:46:33.260Z,450.00
2018-09-30T13:48:26.264Z,343.13
2018-09-30T13:49:26.320Z,315.00
2018-09-30T13:51:19.378Z,292.50
2018-09-30T13:52:19.383Z,270.00
2018-09-30T13:54:12.370Z,253.13
2018-09-30T13:55:12.436Z,247.50
2018-09-30T13:57:05.432Z,258.75
2018-09-30T13:58:05.484Z,264.38
2018-09-30T13:59:58.476Z,298.13
2018-09-30T14:00:58.533Z,320.63
2018-09-30T14:02:51.535Z,365.63
2018-09-30T14:03:51.605Z,405.00
2018-09-30T14:05:44.581Z,382.50
2018-09-30T14:06:44.644Z,343.13
2018-09-30T14:08:37.641Z,348.75
2018-09-30T14:09:37.696Z,343.13
2018-09-30T14:11:30.685Z,337.50
2018-09-30T14:12:30.748Z,331.88
2018-09-30T14:14:23.748Z,331.88
2018-09-30T14:15:23.806Z,326.25
2018-09-30T14:17:16.802Z,326.25
2018-09-30T14:18:16.859Z,315.00
2018-09-30T14:20:09.856Z,298.13
2018-09-30T14:21:09.917Z,292.50
2018-09-30T14:23:02.911Z,292.50
2018-09-30T14:24:02.969Z,292.50
2018-09-30T14:25:55.967Z,286.88
2018-09-30T14:26:56.092Z,292.50
2018-09-30T14:28:49.029Z,286.88
2018-09-30T14:29:49.089Z,281.25
2018-09-30T14:31:42.075Z,270.00
2018-09-30T14:32:42.140Z,258.75
2018-09-30T14:34:35.135Z,258.75
2018-09-30T14:35:35.190Z,264.38
2018-09-30T14:37:28.185Z,264.38
2018-09-30T14:38:28.246Z,258.75
2018-09-30T14:40:21.244Z,253.13
2018-09-30T14:41:21.298Z,253.13
2018-09-30T14:43:14.295Z,253.13
2018-09-30T14:44:14.347Z,247.50
2018-09-30T14:46:07.339Z,247.50
2018-09-30T14:47:07.401Z,247.50
2018-09-30T14:49:00.397Z,236.25
2018-09-30T14:50:00.452Z,230.63
2018-09-30T14:51:53.450Z,219.38
2018-09-30T14:52:53.508Z,219.38
2018-09-30T14:54:46.509Z,219.38
2018-09-30T14:55:46.558Z,219.38
2018-09-30T14:57:39.546Z,225.00
2018-09-30T14:58:39.607Z,225.00
2018-09-30T15:00:32.605Z,225.00
2018-09-30T15:01:32.657Z,225.00
2018-09-30T15:03:25.648Z,219.38
2018-09-30T15:04:25.712Z,213.75
2018-09-30T15:06:18.710Z,219.38
2018-09-30T15:07:18.793Z,219.38
2018-09-30T15:09:11.772Z,208.13
2018-09-30T15:10:11.819Z,208.13
2018-09-30T15:12:04.816Z,208.13
2018-09-30T15:13:04.879Z,208.13
2018-09-30T15:14:57.876Z,202.50
2018-09-30T15:15:57.951Z,202.50
2018-09-30T15:17:50.929Z,202.50
2018-09-30T15:18:50.989Z,202.50
2018-09-30T15:20:43.992Z,196.88
2018-09-30T15:21:44.049Z,191.25
2018-09-30T15:23:37.040Z,191.25
2018-09-30T15:24:37.106Z,185.63
2018-09-30T15:26:30.101Z,185.63
2018-09-30T15:27:30.155Z,185.63
2018-09-30T15:29:23.146Z,185.63
2018-09-30T15:30:23.317Z,180.00
2018-09-30T15:32:16.212Z,180.00
2018-09-30T15:33:16.261Z,174.38
2018-09-30T15:35:09.271Z,174.38
2018-09-30T15:36:09.314Z,174.38
2018-09-30T15:38:02.303Z,163.13
2018-09-30T15:39:02.365Z,163.13
2018-09-30T15:40:55.362Z,157.50
2018-09-30T15:41:55.417Z,157.50
2018-09-30T15:43:48.407Z,151.88
2018-09-30T15:44:48.469Z,151.88
2018-09-30T15:46:41.472Z,151.88
2018-09-30T15:47:41.527Z,151.88
2018-09-30T15:49:34.515Z,146.25
2018-09-30T15:50:34.583Z,146.25
2018-09-30T15:52:27.575Z,140.63
2018-09-30T15:53:27.627Z,140.63
2018-09-30T15:55:20.618Z,135.00
2018-09-30T15:56:20.676Z,129.38
2018-09-30T15:58:13.670Z,129.38
2018-09-30T15:59:13.726Z,123.75
2018-09-30T16:01:06.715Z,118.13
2018-09-30T16:02:06.776Z,118.13
2018-09-30T16:03:59.773Z,112.50
2018-09-30T16:04:59.827Z,118.13
2018-09-30T16:06:52.822Z,112.50
2018-09-30T16:07:52.875Z,106.88
2018-09-30T16:09:45.865Z,106.88
2018-09-30T16:10:45.923Z,106.88
2018-09-30T16:12:38.919Z,101.25
2018-09-30T16:13:38.974Z,101.25
2018-09-30T16:15:31.983Z,95.63
2018-09-30T16:16:32.046Z,95.63
2018-09-30T16:18:25.043Z,90.00
2018-09-30T16:19:25.103Z,84.38
2018-09-30T16:21:18.128Z,78.75
2018-09-30T16:22:18.150Z,73.13
2018-09-30T16:24:11.153Z,67.50
2018-09-30T16:25:11.209Z,67.50
2018-09-30T16:27:04.210Z,61.88
2018-09-30T16:28:04.278Z,61.88
2018-09-30T16:29:57.318Z,56.25
2018-09-30T16:30:57.322Z,56.25
2018-09-30T16:32:50.323Z,50.63
2018-09-30T16:33:50.378Z,50.63
2018-09-30T16:35:43.376Z,45.00
2018-09-30T16:36:43.433Z,45.00
2018-09-30T16:38:36.438Z,39.38
2018-09-30T16:39:36.703Z,39.38
2018-09-30T16:41:29.551Z,33.75
2018-09-30T16:42:29.540Z,33.75
2018-09-30T16:44:22.595Z,33.75
2018-09-30T16:45:22.600Z,28.13
2018-09-30T16:47:15.586Z,28.13
2018-09-30T16:48:15.642Z,22.50
2018-09-30T16:50:08.637Z,22.50
2018-09-30T16:51:08.692Z,22.50
2018-09-30T16:53:01.705Z,16.88
2018-09-30T16:54:01.744Z,16.88
2018-09-30T16:55:54.730Z,16.88
2018-09-30T16:56:54.858Z,11.25
2018-09-30T16:58:47.788Z,11.25
2018-09-30T16:59:47.839Z,11.25
2018-09-30T17:01:40.825Z,11.25
2018-09-30T17:02:40.891Z,5.63
2018-09-30T17:04:33.894Z,5.63
2018-09-30T17:05:33.945Z,5.63
2018-09-30T17:07:26.924Z,5.63
2018-09-30T17:08:26.990Z,5.63
2018-09-30T17:10:19.986Z,5.63
2018-09-30T17:11:20.041Z,0.00
2018-09-30T17:13:13.539Z,0.00
2018-09-30T17:14:13.596Z,0.00
2018-09-30T17:16:06.595Z,0.00
2018-09-30T17:17:06.665Z,0.00
2018-09-30T17:18:59.669Z,0.00
2018-09-30T17:19:59.694Z,0.00
2018-09-30T17:21:52.677Z,0.00
2018-09-30T17:22:52.739Z,0.00
2018-09-30T17:24:45.734Z,0.00
2018-09-30T17:25:45.792Z,0.00
2018-09-30T17:27:38.788Z,0.00
2018-09-30T17:28:38.849Z,0.00
2018-09-30T17:30:31.848Z,0.00
2018-09-30T17:31:31.903Z,0.00
2018-09-30T17:33:24.892Z,0.00
2018-09-30T17:34:24.951Z,0.00
2018-09-30T17:36:17.951Z,0.00
2018-09-30T17:37:18.245Z,0.00
2018-09-30T17:39:11.012Z,0.00
2018-09-30T17:40:11.054Z,0.00
2018-09-30T17:42:04.039Z,0.00
2018-09-30T17:43:04.101Z,0.00
2018-09-30T17:44:57.094Z,0.00
2018-09-30T17:45:57.147Z,0.00
2018-09-30T17:47:50.138Z,0.00
2018-09-30T17:48:50.196Z,0.00
2018-09-30T17:50:43.188Z,0.00
2018-09-30T17:51:43.246Z,0.00
2018-09-30T17:53:36.232Z,0.00
2018-09-30T17:54:36.588Z,0.00
2018-09-30T17:56:29.300Z,0.00
2018-09-30T17:57:29.349Z,0.00
2018-09-30T17:59:22.339Z,0.00
2018-09-30T18:00:22.400Z,0.00
2018-09-30T18:02:15.395Z,0.00
2018-09-30T18:03:15.439Z,0.00
2018-09-30T18:05:08.442Z,0.00
2018-09-30T18:06:08.503Z,0.00
2018-09-30T18:08:01.499Z,0.00
2018-09-30T18:09:01.551Z,0.00
2018-09-30T18:10:54.582Z,0.00
2018-09-30T18:11:54.596Z,0.00
2018-09-30T18:13:48.092Z,0.00
2018-09-30T18:14:48.152Z,0.00
2018-09-30T18:16:41.147Z,0.00
2018-09-30T18:17:41.202Z,0.00
2018-09-30T18:19:34.188Z,0.00
2018-09-30T18:20:34.250Z,0.00
2018-09-30T18:22:27.244Z,0.00
2018-09-30T18:23:27.297Z,0.00
2018-09-30T18:25:20.282Z,0.00